sensor_id;sensor_type;location;lat;lon;timestamp;pressure;altitude;pressure_sealevel;temperature;humidity
61908;BME280;47864;52.526;19.672;2022-07-18T00:00:41;101731.38;;;12.05;100.00
61908;BME280;47864;52.526;19.672;2022-07-18T00:02:43;101732.53;;;12.12;100.00
61908;BME280;47864;52.526;19.672;2022-07-18T00:04:45;101726.53;;;12.10;100.00
61908;BME280;47864;52.526;19.672;2022-07-18T00:06:47;101750.19;;;12.13;100.00
61908;BME280;47864;52.526;19.672;2022-07-18T00:08:50;101736.16;;;12.11;100.00
61908;BME280;47864;52.526;19.672;2022-07-18T00:10:52;101748.19;;;12.05;100.00
61908;BME280;47864;52.526;19.672;2022-07-18T00:12:54;101751.50;;;11.98;100.00
61908;BME280;47864;52.526;19.672;2022-07-18T00:14:56;101743.28;;;12.01;100.00
61908;BME280;47864;52.526;19.672;2022-07-18T00:16:58;101713.69;;;11.94;100.00
61908;BME280;47864;52.526;19.672;2022-07-18T00:19:00;101743.16;;;12.12;100.00
61908;BME280;47864;52.526;19.672;2022-07-18T00:21:02;101736.53;;;11.97;100.00
61908;BME280;47864;52.526;19.672;2022-07-18T00:23:04;101741.41;;;11.92;100.00
61908;BME280;47864;52.526;19.672;2022-07-18T00:25:07;101747.28;;;11.95;100.00
61908;BME280;47864;52.526;19.672;2022-07-18T00:27:09;101746.19;;;11.98;100.00
61908;BME280;47864;52.526;19.672;2022-07-18T00:29:11;101737.91;;;11.91;100.00
61908;BME280;47864;52.526;19.672;2022-07-18T00:31:13;101751.63;;;11.96;100.00
61908;BME280;47864;52.526;19.672;2022-07-18T00:33:15;101749.19;;;11.84;100.00
61908;BME280;47864;52.526;19.672;2022-07-18T00:35:17;101755.03;;;11.77;100.00
61908;BME280;47864;52.526;19.672;2022-07-18T00:37:19;101735.00;;;11.62;100.00
61908;BME280;47864;52.526;19.672;2022-07-18T00:39:21;101744.69;;;11.63;100.00
61908;BME280;47864;52.526;19.672;2022-07-18T00:41:24;101733.84;;;11.55;100.00
61908;BME280;47864;52.526;19.672;2022-07-18T00:43:26;101751.88;;;11.72;100.00
61908;BME280;47864;52.526;19.672;2022-07-18T00:45:28;101739.09;;;11.66;100.00
61908;BME280;47864;52.526;19.672;2022-07-18T00:47:30;101739.97;;;11.67;100.00
61908;BME280;47864;52.526;19.672;2022-07-18T00:49:32;101754.75;;;11.80;100.00
61908;BME280;47864;52.526;19.672;2022-07-18T00:51:34;101737.22;;;11.57;100.00
61908;BME280;47864;52.526;19.672;2022-07-18T00:53:36;101736.44;;;11.66;100.00
61908;BME280;47864;52.526;19.672;2022-07-18T00:55:39;101753.06;;;11.79;100.00
61908;BME280;47864;52.526;19.672;2022-07-18T00:57:42;101753.06;;;11.79;100.00
61908;BME280;47864;52.526;19.672;2022-07-18T00:59:44;101750.88;;;11.85;100.00
61908;BME280;47864;52.526;19.672;2022-07-18T01:01:46;101733.25;;;11.72;100.00
61908;BME280;47864;52.526;19.672;2022-07-18T01:03:49;101731.44;;;11.73;100.00
61908;BME280;47864;52.526;19.672;2022-07-18T01:05:50;101733.66;;;11.68;100.00
61908;BME280;47864;52.526;19.672;2022-07-18T01:07:52;101754.31;;;11.75;100.00
61908;BME280;47864;52.526;19.672;2022-07-18T01:09:54;101760.47;;;11.76;100.00
61908;BME280;47864;52.526;19.672;2022-07-18T01:11:56;101754.81;;;11.69;100.00
61908;BME280;47864;52.526;19.672;2022-07-18T01:14:00;101755.06;;;11.66;100.00
61908;BME280;47864;52.526;19.672;2022-07-18T01:16:02;101758.81;;;11.64;100.00
61908;BME280;47864;52.526;19.672;2022-07-18T01:18:04;101757.94;;;11.74;100.00
61908;BME280;47864;52.526;19.672;2022-07-18T01:20:06;101738.63;;;11.61;100.00
61908;BME280;47864;52.526;19.672;2022-07-18T01:22:08;101723.75;;;11.49;100.00
61908;BME280;47864;52.526;19.672;2022-07-18T01:24:10;101768.31;;;11.77;100.00
61908;BME280;47864;52.526;19.672;2022-07-18T01:26:14;101758.25;;;11.81;100.00
61908;BME280;47864;52.526;19.672;2022-07-18T01:28:16;101760.47;;;11.76;100.00
61908;BME280;47864;52.526;19.672;2022-07-18T01:30:18;101735.09;;;11.51;100.00
61908;BME280;47864;52.526;19.672;2022-07-18T01:32:20;101763.16;;;11.65;100.00
61908;BME280;47864;52.526;19.672;2022-07-18T01:34:23;101771.25;;;11.63;100.00
61908;BME280;47864;52.526;19.672;2022-07-18T01:36:25;101767.31;;;11.58;100.00
61908;BME280;47864;52.526;19.672;2022-07-18T01:38:28;101766.38;;;11.48;100.00
61908;BME280;47864;52.526;19.672;2022-07-18T01:40:30;101767.88;;;11.61;100.00
61908;BME280;47864;52.526;19.672;2022-07-18T01:42:32;101765.09;;;11.63;100.00
61908;BME280;47864;52.526;19.672;2022-07-18T01:44:35;101771.38;;;11.62;100.00
61908;BME280;47864;52.526;19.672;2022-07-18T01:46:37;101774.75;;;11.64;100.00
61908;BME280;47864;52.526;19.672;2022-07-18T01:48:40;101769.72;;;11.61;100.00
61908;BME280;47864;52.526;19.672;2022-07-18T01:50:42;101766.72;;;11.54;100.00
61908;BME280;47864;52.526;19.672;2022-07-18T01:52:44;101756.03;;;11.44;100.00
61908;BME280;47864;52.526;19.672;2022-07-18T01:54:46;101776.50;;;11.54;100.00
61908;BME280;47864;52.526;19.672;2022-07-18T01:56:48;101776.03;;;11.49;100.00
61908;BME280;47864;52.526;19.672;2022-07-18T01:58:50;101767.88;;;11.40;100.00
61908;BME280;47864;52.526;19.672;2022-07-18T02:00:52;101750.28;;;11.28;100.00
61908;BME280;47864;52.526;19.672;2022-07-18T02:02:54;101774.53;;;11.35;100.00
61908;BME280;47864;52.526;19.672;2022-07-18T02:04:56;101779.00;;;11.34;100.00
61908;BME280;47864;52.526;19.672;2022-07-18T02:06:58;101778.16;;;11.34;100.00
61908;BME280;47864;52.526;19.672;2022-07-18T02:08:59;101771.53;;;11.28;100.00
61908;BME280;47864;52.526;19.672;2022-07-18T02:11:02;101745.03;;;11.17;100.00
61908;BME280;47864;52.526;19.672;2022-07-18T02:13:04;101780.81;;;11.34;100.00
61908;BME280;47864;52.526;19.672;2022-07-18T02:15:08;101751.31;;;11.16;100.00
61908;BME280;47864;52.526;19.672;2022-07-18T02:17:10;101773.84;;;11.22;100.00
61908;BME280;47864;52.526;19.672;2022-07-18T02:19:12;101776.03;;;11.28;100.00
61908;BME280;47864;52.526;19.672;2022-07-18T02:21:14;101747.97;;;11.03;100.00
61908;BME280;47864;52.526;19.672;2022-07-18T02:23:16;101768.53;;;11.22;100.00
61908;BME280;47864;52.526;19.672;2022-07-18T02:25:17;101781.13;;;11.20;100.00
61908;BME280;47864;52.526;19.672;2022-07-18T02:27:19;101776.50;;;11.22;100.00
61908;BME280;47864;52.526;19.672;2022-07-18T02:29:21;101773.50;;;11.15;100.00
61908;BME280;47864;52.526;19.672;2022-07-18T02:31:23;101766.50;;;11.14;100.00
61908;BME280;47864;52.526;19.672;2022-07-18T02:33:25;101783.63;;;11.21;100.00
61908;BME280;47864;52.526;19.672;2022-07-18T02:35:28;101763.00;;;11.14;100.00
61908;BME280;47864;52.526;19.672;2022-07-18T02:37:30;101782.53;;;11.24;100.00
61908;BME280;47864;52.526;19.672;2022-07-18T02:39:32;101757.03;;;11.00;100.00
61908;BME280;47864;52.526;19.672;2022-07-18T02:41:34;101759.44;;;11.03;100.00
61908;BME280;47864;52.526;19.672;2022-07-18T02:43:36;101786.91;;;11.14;100.00
61908;BME280;47864;52.526;19.672;2022-07-18T02:45:38;101766.56;;;11.03;100.00
61908;BME280;47864;52.526;19.672;2022-07-18T02:47:44;101779.28;;;11.20;100.00
61908;BME280;47864;52.526;19.672;2022-07-18T02:49:46;101761.59;;;11.10;100.00
61908;BME280;47864;52.526;19.672;2022-07-18T02:51:47;101786.44;;;11.20;100.00
61908;BME280;47864;52.526;19.672;2022-07-18T02:53:49;101769.69;;;11.08;100.00
61908;BME280;47864;52.526;19.672;2022-07-18T02:55:51;101760.25;;;11.04;100.00
61908;BME280;47864;52.526;19.672;2022-07-18T02:57:53;101725.09;;;10.80;100.00
61908;BME280;47864;52.526;19.672;2022-07-18T02:59:55;101769.28;;;11.13;100.00
61908;BME280;47864;52.526;19.672;2022-07-18T03:01:57;101750.16;;;10.98;100.00
61908;BME280;47864;52.526;19.672;2022-07-18T03:03:59;101758.34;;;11.06;100.00
61908;BME280;47864;52.526;19.672;2022-07-18T03:06:01;101749.31;;;10.97;100.00
61908;BME280;47864;52.526;19.672;2022-07-18T03:08:03;101757.97;;;11.11;100.00
61908;BME280;47864;52.526;19.672;2022-07-18T03:10:06;101779.66;;;11.27;100.00
61908;BME280;47864;52.526;19.672;2022-07-18T03:12:08;101775.09;;;11.18;100.00
61908;BME280;47864;52.526;19.672;2022-07-18T03:14:11;101765.34;;;11.07;100.00
61908;BME280;47864;52.526;19.672;2022-07-18T03:16:13;101762.38;;;11.21;100.00
61908;BME280;47864;52.526;19.672;2022-07-18T03:18:15;101742.53;;;11.04;100.00
61908;BME280;47864;52.526;19.672;2022-07-18T03:20:17;101768.09;;;11.37;100.00
61908;BME280;47864;52.526;19.672;2022-07-18T03:22:19;101759.69;;;11.32;100.00
61908;BME280;47864;52.526;19.672;2022-07-18T03:24:21;101772.66;;;11.47;100.00
61908;BME280;47864;52.526;19.672;2022-07-18T03:26:23;101763.59;;;11.49;100.00
61908;BME280;47864;52.526;19.672;2022-07-18T03:28:24;101768.41;;;11.55;100.00
61908;BME280;47864;52.526;19.672;2022-07-18T03:30:26;101771.38;;;11.62;100.00
61908;BME280;47864;52.526;19.672;2022-07-18T03:32:28;101767.50;;;11.66;100.00
61908;BME280;47864;52.526;19.672;2022-07-18T03:34:30;101741.94;;;11.54;100.00
61908;BME280;47864;52.526;19.672;2022-07-18T03:36:32;101770.13;;;11.77;100.00
61908;BME280;47864;52.526;19.672;2022-07-18T03:38:35;101756.00;;;11.76;100.00
61908;BME280;47864;52.526;19.672;2022-07-18T03:40:36;101760.13;;;11.90;100.00
61908;BME280;47864;52.526;19.672;2022-07-18T03:42:39;101763.94;;;11.97;100.00
61908;BME280;47864;52.526;19.672;2022-07-18T03:44:41;101756.50;;;11.91;100.00
61908;BME280;47864;52.526;19.672;2022-07-18T03:46:43;101768.44;;;11.97;100.00
61908;BME280;47864;52.526;19.672;2022-07-18T03:48:45;101764.41;;;12.02;100.00
61908;BME280;47864;52.526;19.672;2022-07-18T03:50:47;101742.00;;;12.05;100.00
61908;BME280;47864;52.526;19.672;2022-07-18T03:52:49;101749.34;;;12.12;100.00
61908;BME280;47864;52.526;19.672;2022-07-18T03:54:51;101741.94;;;12.16;100.00
61908;BME280;47864;52.526;19.672;2022-07-18T03:56:53;101766.09;;;12.34;100.00
61908;BME280;47864;52.526;19.672;2022-07-18T03:58:54;101761.03;;;12.31;100.00
61908;BME280;47864;52.526;19.672;2022-07-18T04:00:56;101754.31;;;12.27;100.00
61908;BME280;47864;52.526;19.672;2022-07-18T04:02:58;101767.25;;;12.41;100.00
61908;BME280;47864;52.526;19.672;2022-07-18T04:05:06;101774.16;;;12.53;100.00
61908;BME280;47864;52.526;19.672;2022-07-18T04:07:08;101766.50;;;12.60;100.00
61908;BME280;47864;52.526;19.672;2022-07-18T04:09:10;101735.63;;;12.47;100.00
61908;BME280;47864;52.526;19.672;2022-07-18T04:11:11;101766.81;;;12.76;100.00
61908;BME280;47864;52.526;19.672;2022-07-18T04:13:19;101744.50;;;12.67;100.00
61908;BME280;47864;52.526;19.672;2022-07-18T04:15:23;101771.03;;;12.88;100.00
61908;BME280;47864;52.526;19.672;2022-07-18T04:17:25;101772.31;;;13.03;100.00
61908;BME280;47864;52.526;19.672;2022-07-18T04:19:27;101759.97;;;13.02;100.00
61908;BME280;47864;52.526;19.672;2022-07-18T04:21:29;101753.16;;;13.09;100.00
61908;BME280;47864;52.526;19.672;2022-07-18T04:23:31;101766.78;;;13.16;100.00
61908;BME280;47864;52.526;19.672;2022-07-18T04:25:38;101740.50;;;12.92;100.00
61908;BME280;47864;52.526;19.672;2022-07-18T04:27:40;101761.09;;;12.90;100.00
61908;BME280;47864;52.526;19.672;2022-07-18T04:29:42;101776.53;;;12.96;100.00
61908;BME280;47864;52.526;19.672;2022-07-18T04:31:44;101768.69;;;13.04;100.00
61908;BME280;47864;52.526;19.672;2022-07-18T04:33:46;101765.50;;;13.29;100.00
61908;BME280;47864;52.526;19.672;2022-07-18T04:35:48;101740.00;;;13.17;100.00
61908;BME280;47864;52.526;19.672;2022-07-18T04:37:51;101762.28;;;13.45;100.00
61908;BME280;47864;52.526;19.672;2022-07-18T04:39:53;101740.94;;;13.07;100.00
61908;BME280;47864;52.526;19.672;2022-07-18T04:41:55;101767.03;;;13.61;100.00
61908;BME280;47864;52.526;19.672;2022-07-18T04:43:57;101744.97;;;13.78;100.00
61908;BME280;47864;52.526;19.672;2022-07-18T04:45:59;101771.50;;;13.89;100.00
61908;BME280;47864;52.526;19.672;2022-07-18T04:48:02;101767.38;;;14.04;100.00
61908;BME280;47864;52.526;19.672;2022-07-18T04:50:05;101761.78;;;14.35;100.00
61908;BME280;47864;52.526;19.672;2022-07-18T04:52:07;101768.78;;;14.55;100.00
61908;BME280;47864;52.526;19.672;2022-07-18T04:54:08;101758.00;;;14.47;100.00
61908;BME280;47864;52.526;19.672;2022-07-18T04:56:10;101765.88;;;14.49;100.00
61908;BME280;47864;52.526;19.672;2022-07-18T04:58:12;101770.47;;;14.56;100.00
61908;BME280;47864;52.526;19.672;2022-07-18T05:00:17;101732.88;;;14.30;100.00
61908;BME280;47864;52.526;19.672;2022-07-18T05:02:19;101758.97;;;14.46;100.00
61908;BME280;47864;52.526;19.672;2022-07-18T05:04:21;101768.47;;;14.58;100.00
61908;BME280;47864;52.526;19.672;2022-07-18T05:06:23;101743.44;;;14.59;100.00
61908;BME280;47864;52.526;19.672;2022-07-18T05:08:25;101761.09;;;14.97;100.00
61908;BME280;47864;52.526;19.672;2022-07-18T05:10:26;101751.00;;;15.09;100.00
61908;BME280;47864;52.526;19.672;2022-07-18T05:12:28;101763.78;;;15.15;100.00
61908;BME280;47864;52.526;19.672;2022-07-18T05:14:30;101773.38;;;15.26;100.00
61908;BME280;47864;52.526;19.672;2022-07-18T05:16:35;101742.84;;;15.28;100.00
61908;BME280;47864;52.526;19.672;2022-07-18T05:18:37;101750.13;;;15.53;100.00
61908;BME280;47864;52.526;19.672;2022-07-18T05:20:39;101738.78;;;15.42;100.00
61908;BME280;47864;52.526;19.672;2022-07-18T05:22:44;101736.72;;;15.36;100.00
61908;BME280;47864;52.526;19.672;2022-07-18T05:24:46;101760.66;;;15.55;100.00
61908;BME280;47864;52.526;19.672;2022-07-18T05:26:48;101746.84;;;15.85;100.00
61908;BME280;47864;52.526;19.672;2022-07-18T05:28:50;101712.16;;;15.76;100.00
61908;BME280;47864;52.526;19.672;2022-07-18T05:30:52;101745.25;;;16.01;100.00
61908;BME280;47864;52.526;19.672;2022-07-18T05:32:54;101735.47;;;16.17;100.00
61908;BME280;47864;52.526;19.672;2022-07-18T05:34:56;101758.59;;;16.52;98.22
61908;BME280;47864;52.526;19.672;2022-07-18T05:36:58;101760.94;;;16.55;97.69
61908;BME280;47864;52.526;19.672;2022-07-18T05:39:01;101745.13;;;16.36;96.90
61908;BME280;47864;52.526;19.672;2022-07-18T05:41:03;101759.63;;;16.59;96.38
61908;BME280;47864;52.526;19.672;2022-07-18T05:43:05;101732.88;;;16.67;96.51
61908;BME280;47864;52.526;19.672;2022-07-18T05:45:07;101752.88;;;16.89;95.40
61908;BME280;47864;52.526;19.672;2022-07-18T05:47:10;101716.13;;;16.65;92.64
61908;BME280;47864;52.526;19.672;2022-07-18T05:49:14;101755.84;;;16.70;92.38
61908;BME280;47864;52.526;19.672;2022-07-18T05:51:16;101734.72;;;16.67;88.68
61908;BME280;47864;52.526;19.672;2022-07-18T05:53:17;101747.97;;;16.68;90.34
61908;BME280;47864;52.526;19.672;2022-07-18T05:55:19;101752.69;;;16.83;91.31
61908;BME280;47864;52.526;19.672;2022-07-18T05:57:21;101754.06;;;16.87;88.94
61908;BME280;47864;52.526;19.672;2022-07-18T05:59:23;101749.75;;;17.10;87.81
61908;BME280;47864;52.526;19.672;2022-07-18T06:01:25;101756.81;;;17.27;88.94
61908;BME280;47864;52.526;19.672;2022-07-18T06:03:27;101753.97;;;17.21;87.98
61908;BME280;47864;52.526;19.672;2022-07-18T06:05:29;101744.88;;;17.46;86.37
61908;BME280;47864;52.526;19.672;2022-07-18T06:07:31;101750.78;;;17.58;84.42
61908;BME280;47864;52.526;19.672;2022-07-18T06:09:33;101732.34;;;17.63;84.20
61908;BME280;47864;52.526;19.672;2022-07-18T06:11:35;101753.41;;;18.06;82.23
61908;BME280;47864;52.526;19.672;2022-07-18T06:13:39;101746.50;;;18.12;80.90
61908;BME280;47864;52.526;19.672;2022-07-18T06:15:41;101725.91;;;18.04;81.64
61908;BME280;47864;52.526;19.672;2022-07-18T06:17:43;101751.66;;;18.85;80.11
61908;BME280;47864;52.526;19.672;2022-07-18T06:19:45;101755.69;;;18.81;77.62
61908;BME280;47864;52.526;19.672;2022-07-18T06:21:47;101736.81;;;18.89;75.42
61908;BME280;47864;52.526;19.672;2022-07-18T06:23:49;101741.47;;;19.49;76.70
61908;BME280;47864;52.526;19.672;2022-07-18T06:25:51;101742.34;;;19.41;74.72
61908;BME280;47864;52.526;19.672;2022-07-18T06:27:53;101740.50;;;19.79;72.73
61908;BME280;47864;52.526;19.672;2022-07-18T06:29:55;101752.91;;;19.51;71.83
61908;BME280;47864;52.526;19.672;2022-07-18T06:31:57;101757.16;;;19.14;73.69
61908;BME280;47864;52.526;19.672;2022-07-18T06:33:59;101723.47;;;19.49;73.35
61908;BME280;47864;52.526;19.672;2022-07-18T06:36:04;101739.31;;;19.82;72.42
61908;BME280;47864;52.526;19.672;2022-07-18T06:38:06;101724.47;;;20.30;71.30
61908;BME280;47864;52.526;19.672;2022-07-18T06:40:08;101745.00;;;20.31;69.76
61908;BME280;47864;52.526;19.672;2022-07-18T06:42:10;101748.72;;;20.59;69.22
61908;BME280;47864;52.526;19.672;2022-07-18T06:44:13;101723.19;;;20.40;67.09
61908;BME280;47864;52.526;19.672;2022-07-18T06:48:48;101724.66;;;19.99;68.94
61908;BME280;47864;52.526;19.672;2022-07-18T06:50:50;101721.59;;;20.46;69.38
61908;BME280;47864;52.526;19.672;2022-07-18T06:52:52;101742.38;;;21.03;68.77
61908;BME280;47864;52.526;19.672;2022-07-18T06:54:54;101748.69;;;21.24;66.22
61908;BME280;47864;52.526;19.672;2022-07-18T06:56:56;101744.38;;;21.79;63.83
61908;BME280;47864;52.526;19.672;2022-07-18T06:58:58;101718.03;;;21.60;63.66
61908;BME280;47864;52.526;19.672;2022-07-18T07:01:00;101745.63;;;21.55;65.33
61908;BME280;47864;52.526;19.672;2022-07-18T07:03:02;101747.44;;;21.27;65.31
61908;BME280;47864;52.526;19.672;2022-07-18T07:05:04;101750.28;;;21.40;65.07
61908;BME280;47864;52.526;19.672;2022-07-18T07:07:06;101736.88;;;21.53;65.49
61908;BME280;47864;52.526;19.672;2022-07-18T07:09:08;101730.19;;;21.07;65.74
61908;BME280;47864;52.526;19.672;2022-07-18T07:11:10;101748.75;;;20.95;67.50
61908;BME280;47864;52.526;19.672;2022-07-18T07:13:12;101732.59;;;21.16;66.98
61908;BME280;47864;52.526;19.672;2022-07-18T07:15:21;101750.44;;;21.60;65.98
61908;BME280;47864;52.526;19.672;2022-07-18T07:17:23;101728.41;;;21.35;64.60
61908;BME280;47864;52.526;19.672;2022-07-18T07:19:25;101733.34;;;21.53;63.64
61908;BME280;47864;52.526;19.672;2022-07-18T07:21:27;101748.47;;;21.26;65.37
61908;BME280;47864;52.526;19.672;2022-07-18T07:23:29;101729.06;;;21.37;64.35
61908;BME280;47864;52.526;19.672;2022-07-18T07:25:30;101751.13;;;21.69;64.09
61908;BME280;47864;52.526;19.672;2022-07-18T07:29:34;101591.97;;;20.83;62.91
61908;BME280;47864;52.526;19.672;2022-07-18T07:31:36;101736.94;;;22.57;62.70
61908;BME280;47864;52.526;19.672;2022-07-18T07:33:37;101741.25;;;22.92;60.98
61908;BME280;47864;52.526;19.672;2022-07-18T07:35:39;101739.06;;;23.22;59.56
61908;BME280;47864;52.526;19.672;2022-07-18T07:37:44;101738.75;;;22.91;61.16
61908;BME280;47864;52.526;19.672;2022-07-18T07:39:45;101737.34;;;23.14;61.17
61908;BME280;47864;52.526;19.672;2022-07-18T07:41:48;101718.03;;;21.88;60.79
61908;BME280;47864;52.526;19.672;2022-07-18T07:43:52;101741.91;;;21.84;64.04
61908;BME280;47864;52.526;19.672;2022-07-18T07:45:54;101736.69;;;22.04;62.54
61908;BME280;47864;52.526;19.672;2022-07-18T07:47:56;101718.88;;;21.60;62.39
61908;BME280;47864;52.526;19.672;2022-07-18T07:49:58;101736.66;;;21.76;63.66
61908;BME280;47864;52.526;19.672;2022-07-18T07:52:00;101719.19;;;22.41;63.44
61908;BME280;47864;52.526;19.672;2022-07-18T07:54:03;101739.53;;;21.75;63.81
61908;BME280;47864;52.526;19.672;2022-07-18T07:56:05;101726.66;;;21.98;62.86
61908;BME280;47864;52.526;19.672;2022-07-18T07:58:07;101715.03;;;21.76;63.81
61908;BME280;47864;52.526;19.672;2022-07-18T08:00:09;101706.47;;;22.35;61.52
61908;BME280;47864;52.526;19.672;2022-07-18T08:02:11;101721.09;;;22.47;61.98
61908;BME280;47864;52.526;19.672;2022-07-18T08:04:13;101729.91;;;22.21;61.34
61908;BME280;47864;52.526;19.672;2022-07-18T08:06:15;101700.69;;;21.97;60.60
61908;BME280;47864;52.526;19.672;2022-07-18T08:08:17;101721.31;;;22.52;63.25
61908;BME280;47864;52.526;19.672;2022-07-18T08:10:20;101718.00;;;23.18;59.68
61908;BME280;47864;52.526;19.672;2022-07-18T08:12:22;101704.63;;;22.42;60.03
61908;BME280;47864;52.526;19.672;2022-07-18T08:14:24;101717.59;;;21.56;63.08
61908;BME280;47864;52.526;19.672;2022-07-18T08:16:25;101713.44;;;22.16;61.50
61908;BME280;47864;52.526;19.672;2022-07-18T08:18:28;101688.22;;;22.44;59.78
61908;BME280;47864;52.526;19.672;2022-07-18T08:20:30;101710.47;;;22.93;61.53
61908;BME280;47864;52.526;19.672;2022-07-18T08:22:31;101691.13;;;23.16;58.44
61908;BME280;47864;52.526;19.672;2022-07-18T08:24:34;101683.44;;;22.46;59.96
61908;BME280;47864;52.526;19.672;2022-07-18T08:26:35;101707.59;;;22.47;61.04
61908;BME280;47864;52.526;19.672;2022-07-18T08:28:37;101708.09;;;22.23;60.10
61908;BME280;47864;52.526;19.672;2022-07-18T08:30:39;101672.41;;;21.99;61.63
61908;BME280;47864;52.526;19.672;2022-07-18T08:32:41;101709.81;;;22.91;59.41
61908;BME280;47864;52.526;19.672;2022-07-18T08:34:44;101703.19;;;22.94;58.81
61908;BME280;47864;52.526;19.672;2022-07-18T08:36:46;101683.22;;;23.67;57.13
61908;BME280;47864;52.526;19.672;2022-07-18T08:38:48;101703.03;;;23.22;59.36
61908;BME280;47864;52.526;19.672;2022-07-18T08:40:52;101705.38;;;22.64;59.42
61908;BME280;47864;52.526;19.672;2022-07-18T08:42:56;101700.47;;;23.00;58.46
61908;BME280;47864;52.526;19.672;2022-07-18T08:45:22;101705.69;;;23.08;60.20
61908;BME280;47864;52.526;19.672;2022-07-18T08:47:26;101706.50;;;22.96;58.51
61908;BME280;47864;52.526;19.672;2022-07-18T08:49:30;101692.59;;;23.32;58.07
61908;BME280;47864;52.526;19.672;2022-07-18T08:51:34;101693.09;;;22.68;58.67
61908;BME280;47864;52.526;19.672;2022-07-18T08:53:36;101698.38;;;22.42;59.59
61908;BME280;47864;52.526;19.672;2022-07-18T08:55:39;101699.94;;;22.64;60.04
61908;BME280;47864;52.526;19.672;2022-07-18T08:57:40;101674.41;;;22.25;61.21
61908;BME280;47864;52.526;19.672;2022-07-18T08:59:42;101716.78;;;22.66;59.37
61908;BME280;47864;52.526;19.672;2022-07-18T09:01:44;101700.75;;;22.58;60.61
61908;BME280;47864;52.526;19.672;2022-07-18T09:03:46;101664.44;;;22.26;61.36
61908;BME280;47864;52.526;19.672;2022-07-18T09:06:02;101698.31;;;22.22;60.74
61908;BME280;47864;52.526;19.672;2022-07-18T09:08:17;101696.28;;;22.30;61.40
61908;BME280;47864;52.526;19.672;2022-07-18T09:10:19;101704.63;;;22.01;61.93
61908;BME280;47864;52.526;19.672;2022-07-18T09:12:21;101696.66;;;21.93;62.88
61908;BME280;47864;52.526;19.672;2022-07-18T09:14:42;101709.72;;;22.17;62.92
61908;BME280;47864;52.526;19.672;2022-07-18T09:16:59;101682.09;;;21.59;61.72
61908;BME280;47864;52.526;19.672;2022-07-18T09:19:05;101715.28;;;21.53;64.23
61908;BME280;47864;52.526;19.672;2022-07-18T09:21:13;101714.25;;;21.12;64.40
61908;BME280;47864;52.526;19.672;2022-07-18T09:23:17;101719.22;;;21.30;65.01
61908;BME280;47864;52.526;19.672;2022-07-18T09:25:21;101723.63;;;21.58;64.42
61908;BME280;47864;52.526;19.672;2022-07-18T09:27:28;101729.94;;;21.44;65.64
61908;BME280;47864;52.526;19.672;2022-07-18T09:29:30;101715.06;;;21.48;67.00
61908;BME280;47864;52.526;19.672;2022-07-18T09:31:39;101733.50;;;21.45;65.57
61908;BME280;47864;52.526;19.672;2022-07-18T09:33:51;101733.13;;;21.48;66.81
61908;BME280;47864;52.526;19.672;2022-07-18T09:35:53;101716.81;;;21.62;65.37
61908;BME280;47864;52.526;19.672;2022-07-18T09:40:24;101731.97;;;21.91;64.75
61908;BME280;47864;52.526;19.672;2022-07-18T09:42:28;101723.28;;;21.96;65.57
61908;BME280;47864;52.526;19.672;2022-07-18T09:44:30;101680.78;;;21.83;66.62
61908;BME280;47864;52.526;19.672;2022-07-18T09:46:31;101701.22;;;22.20;62.42
61908;BME280;47864;52.526;19.672;2022-07-18T09:48:34;101738.44;;;22.66;61.55
61908;BME280;47864;52.526;19.672;2022-07-18T09:50:41;101694.13;;;22.19;62.29
61908;BME280;47864;52.526;19.672;2022-07-18T09:52:44;101735.38;;;22.34;61.46
61908;BME280;47864;52.526;19.672;2022-07-18T09:54:46;101740.22;;;22.39;62.48
61908;BME280;47864;52.526;19.672;2022-07-18T09:56:47;101717.59;;;21.84;62.09
61908;BME280;47864;52.526;19.672;2022-07-18T09:58:52;101727.84;;;21.68;61.43
61908;BME280;47864;52.526;19.672;2022-07-18T10:00:56;101716.41;;;21.93;62.18
61908;BME280;47864;52.526;19.672;2022-07-18T10:02:59;101732.50;;;22.36;59.70
61908;BME280;47864;52.526;19.672;2022-07-18T10:05:01;101725.47;;;22.48;61.16
61908;BME280;47864;52.526;19.672;2022-07-18T10:07:11;101720.28;;;22.53;58.73
61908;BME280;47864;52.526;19.672;2022-07-18T10:09:13;101734.38;;;22.83;58.73
61908;BME280;47864;52.526;19.672;2022-07-18T10:11:15;101734.66;;;23.21;57.77
61908;BME280;47864;52.526;19.672;2022-07-18T10:13:19;101729.72;;;23.51;58.43
61908;BME280;47864;52.526;19.672;2022-07-18T10:15:25;101734.72;;;23.61;57.86
61908;BME280;47864;52.526;19.672;2022-07-18T10:17:27;101729.91;;;23.30;55.23
61908;BME280;47864;52.526;19.672;2022-07-18T10:19:29;101718.56;;;22.80;56.77
61908;BME280;47864;52.526;19.672;2022-07-18T10:21:31;101726.25;;;22.90;57.04
61908;BME280;47864;52.526;19.672;2022-07-18T10:23:46;101729.91;;;23.30;57.35
61908;BME280;47864;52.526;19.672;2022-07-18T10:26:12;101729.22;;;23.08;55.50
61908;BME280;47864;52.526;19.672;2022-07-18T10:28:14;101728.66;;;23.39;56.43
61908;BME280;47864;52.526;19.672;2022-07-18T10:30:17;101729.28;;;23.67;55.28
61908;BME280;47864;52.526;19.672;2022-07-18T10:32:32;101714.91;;;23.47;53.50
61908;BME280;47864;52.526;19.672;2022-07-18T10:34:37;101721.78;;;23.49;54.49
61908;BME280;47864;52.526;19.672;2022-07-18T10:39:12;101731.78;;;23.49;54.81